ADDS METAR Data INFO
IDs: Format: Raw Decoded Include TAF

Data at: 1038 UTC 19 Oct 2017

KMER 191035Z AUTO 31005KT 6SM CLR 07/04 A2993 RMK AO1
KMER 190935Z AUTO 00000KT 7SM CLR 09/04 A2994 RMK AO1
KMER 190915Z AUTO 34003KT 7SM CLR 11/06 A2995 RMK AO1
KMER 190855Z AUTO 30004KT 8SM CLR 12/06 A2996 RMK AO1
KMER 190835Z AUTO 30004KT 7SM CLR 09/06 A2996 RMK AO1
KMER 190815Z AUTO 32004KT 7SM CLR 08/05 A2996 RMK AO1
KMER 190755Z AUTO 5SM CLR 08/03 A2995 RMK AO1
KMER 190735Z AUTO 00000KT 6SM CLR 09/04 A2995 RMK AO1
KMER 190715Z AUTO 00000KT 7SM CLR 10/04 A2996 RMK AO1
KMER 190655Z AUTO 00000KT 5SM CLR 11/04 A2996 RMK AO1
KMER 190635Z AUTO 00000KT 6SM CLR 11/03 A2996 RMK AO1
KMER 190615Z AUTO 00000KT 5SM CLR 13/04 A2996 RMK AO1
KMER 190555Z AUTO 00000KT 7SM CLR 13/05 A2995 RMK AO1
KMER 190535Z AUTO 00000KT 8SM CLR 14/06 A2995 RMK AO1
KMER 190515Z AUTO 00000KT 7SM CLR 12/05 A2995 RMK AO1
KMER 190455Z AUTO 6SM CLR 11/06 A2995 RMK AO1
KMER 190435Z AUTO 5SM CLR 12/04 A2995 RMK AO1
KMER 190415Z AUTO 5SM CLR 13/04 A2995 RMK AO1
KMER 190355Z AUTO 00000KT 6SM CLR 14/06 A2995 RMK AO1
KMER 190350Z 00000KT 7SM SKC 14/04 A2995
KMER 190335Z AUTO 28003KT 6SM CLR 16/06 A2995 RMK AO1
KMER 190315Z AUTO 00000KT 6SM CLR 16/04 A2995 RMK AO1
KMER 190250Z CALMKT 7SM SKC 17/04 A2995
KMER 190150Z VRB04KT 7SM FU BKN150 20/05 A2994
KMER 190050Z VRB04KT 7SM FU BKN150 25/01 A2993
KMER 182350Z 34006KT 7SM FU BKN150 28/00 A2994
KMER 182245Z 34006KT 7SM FU SKC 30/00 A2995
KMER 182145Z 31006KT 7SM FU SKC 30/00 A2996
KMER 182045Z 31006KT 7SM FU SKC 28/01 A3000
KMER 181945Z 31006KT 7SM FU SKC 27/01 A3003
KMER 181845Z 31006KT 7SM FU SKC 25/02 A3005
KMER 181745Z 34004KT 7SM FU SKC 22/03 A3005
KMER 181645Z 34004KT 7SM FU SKC 17/06 A3006
KMER 181545Z 00000KT 5SM FU SKC 11/06 A3005
KMER 181445Z 00000KT 5SM FU SKC 07/03 A3003
KMER 181345Z VRB04KT 5SM FU SKC 06/03 A3002
KMER 181255Z AUTO 00000KT 7SM CLR 06/04 A3001 RMK AO1
KMER 181235Z AUTO 00000KT 7SM CLR 06/03 A3001 RMK AO1
KMER 181215Z AUTO 00000KT 7SM CLR 07/04 A3001 RMK AO1
KMER 181155Z AUTO 00000KT 7SM CLR 07/04 A3001 RMK AO1
KMER 181135Z AUTO 00000KT 7SM CLR 07/04 A3001 RMK AO1
KMER 181115Z AUTO 00000KT 7SM CLR 07/05 A3001 RMK AO1
KMER 181055Z AUTO 00000KT 7SM CLR 07/06 A3001 RMK AO1
KMER 181035Z AUTO 00000KT 8SM CLR 07/04 A3002 RMK AO1
KMER 181015Z AUTO 00000KT 7SM CLR 08/05 A3002 RMK AO1
KMER 180955Z AUTO 00000KT 8SM CLR 08/04 A3002 RMK AO1
KMER 180935Z AUTO 00000KT 9SM CLR 09/04 A3002 RMK AO1
KMER 180915Z AUTO 00000KT 8SM CLR 09/04 A3002 RMK AO1
KMER 180855Z AUTO 00000KT 8SM CLR 11/05 A3002 RMK AO1
KMER 180835Z AUTO 33003KT 9SM CLR 12/07 A3002 RMK AO1
KMER 180815Z AUTO 00000KT 8SM CLR 11/06 A3002 RMK AO1
KMER 180755Z AUTO 00000KT 8SM CLR 12/06 A3002 RMK AO1
KMER 180735Z AUTO 31005KT 9SM CLR 14/07 A3002 RMK AO1
KMER 180715Z AUTO 30004KT 8SM CLR 14/07 A3002 RMK AO1
KMER 180655Z AUTO 33004KT 7SM CLR 13/07 A3002 RMK AO1
KMER 180635Z AUTO 32004KT 7SM CLR 13/07 A3003 RMK AO1
KMER 180615Z AUTO 33005KT 7SM CLR 15/07 A3003 RMK AO1
KMER 180555Z AUTO 32003KT 7SM CLR 13/08 A3003 RMK AO1
KMER 180535Z AUTO 36003KT 6SM CLR 14/08 A3003 RMK AO1
KMER 180515Z AUTO 6SM CLR 14/07 A3003 RMK AO1
KMER 180455Z AUTO 34005KT 7SM CLR 16/08 A3003 RMK AO1
KMER 180435Z AUTO 35003KT 7SM CLR 16/07 A3002 RMK AO1
KMER 180415Z AUTO 35004KT 7SM CLR 17/07 A3002 RMK AO1
KMER 180355Z AUTO 33004KT 7SM CLR 17/07 A3002 RMK AO1
KMER 180345Z VRB04KT 7SM BKN150 17/07 A3002
KMER 180335Z AUTO 31004KT 7SM CLR 17/07 A3002 RMK AO1
KMER 180315Z AUTO 32004KT 6SM CLR 17/07 A3003 RMK AO1
KMER 180250Z VRB04KT 7SM BKN150 18/07 A3002
KMER 180150Z 30006KT 7SM BKN120 21/07 A3001
KMER 180050Z 32007KT 5SM FU BKN120 24/06 A3001
KMER 172350Z 32007KT 6SM FU BKN120 27/04 A3002
KMER 172250Z 32007KT 6SM FU BKN120 28/03 A3002